Time;durP1;ratioP1;P1;durP2;ratioP2;P2;SDS_P1;SDS_P2;PMS_P1;PMS_P2;Temp;Humidity;BMP_temperature;BMP_pressure;BME280_temperature;BME280_humidity;BME280_pressure;Samples;Min_cycle;Max_cycle;Signal;HPM_P1;HPM_P2
2022/05/27 00:01:32;;;;;;;15.38;3.67;;;;;;;;;;5123092;27;20188;-75
2022/05/27 00:03:59;;;;;;;14.93;4.03;;;;;;;;;;5107069;27;21131;-74
2022/05/27 00:06:27;;;;;;;13.38;3.60;;;;;;;;;;5118966;27;20215;-75
2022/05/27 00:08:53;;;;;;;20.25;3.75;;;;;;;;;;5109231;27;20189;-74
2022/05/27 00:11:19;;;;;;;18.85;5.10;;;;;;;;;;5110375;28;20196;-75
2022/05/27 00:13:45;;;;;;;18.85;4.80;;;;;;;;;;5109881;28;20545;-76
2022/05/27 00:16:11;;;;;;;19.85;4.68;;;;;;;;;;5108988;28;20185;-75
2022/05/27 00:18:38;;;;;;;23.83;5.00;;;;;;;;;;5107572;28;20257;-74
2022/05/27 00:21:04;;;;;;;34.80;4.95;;;;;;;;;;5109347;28;20197;-75
2022/05/27 00:23:31;;;;;;;26.40;5.60;;;;;;;;;;5106354;28;20294;-75
2022/05/27 00:25:57;;;;;;;23.92;4.90;;;;;;;;;;5112792;27;20238;-74
2022/05/27 00:28:23;;;;;;;23.92;5.10;;;;;;;;;;5109044;28;20189;-75
2022/05/27 00:30:49;;;;;;;23.33;4.88;;;;;;;;;;5110122;27;20177;-75
2022/05/27 00:33:15;;;;;;;19.17;4.07;;;;;;;;;;5109831;28;20276;-74
2022/05/27 00:35:41;;;;;;;19.15;4.07;;;;;;;;;;5108476;28;20185;-76
2022/05/27 00:38:07;;;;;;;20.83;4.75;;;;;;;;;;5106922;28;20590;-74
2022/05/27 00:40:36;;;;;;;19.98;4.45;;;;;;;;;;5111116;28;20234;-74
2022/05/27 00:43:02;;;;;;;22.17;4.03;;;;;;;;;;5108209;27;20669;-73
2022/05/27 00:45:28;;;;;;;20.08;3.88;;;;;;;;;;5110480;28;20235;-74
2022/05/27 00:47:55;;;;;;;11.82;3.70;;;;;;;;;;5108558;27;20196;-75
2022/05/27 00:50:26;;;;;;;19.15;3.47;;;;;;;;;;5113798;27;20162;-75
2022/05/27 00:52:52;;;;;;;19.42;3.65;;;;;;;;;;5110703;27;20239;-76
2022/05/27 00:55:22;;;;;;;16.55;3.70;;;;;;;;;;5107675;27;20235;-74
2022/05/27 00:57:53;;;;;;;8.73;3.38;;;;;;;;;;5108966;28;20587;-73
2022/05/27 01:00:21;;;;;;;14.85;3.15;;;;;;;;;;5109187;27;20189;-75
2022/05/27 01:02:48;;;;;;;15.25;3.50;;;;;;;;;;5108013;28;20189;-75
2022/05/27 01:05:16;;;;;;;18.27;3.45;;;;;;;;;;5111027;28;20227;-74
2022/05/27 01:07:42;;;;;;;11.00;3.20;;;;;;;;;;5108809;27;21309;-75
2022/05/27 01:10:09;;;;;;;14.75;3.47;;;;;;;;;;5109524;27;20250;-77
2022/05/27 01:12:47;;;;;;;14.45;2.88;;;;;;;;;;5106467;28;20189;-74
2022/05/27 01:15:13;;;;;;;16.83;3.58;;;;;;;;;;5110519;28;20622;-74
2022/05/27 01:17:42;;;;;;;12.30;2.95;;;;;;;;;;5108679;28;20267;-75
2022/05/27 01:20:21;;;;;;;10.85;3.10;;;;;;;;;;5109754;27;20212;-74
2022/05/27 01:23:05;;;;;;;19.40;2.85;;;;;;;;;;5106791;27;20185;-75
2022/05/27 01:25:45;;;;;;;15.15;3.08;;;;;;;;;;5108763;28;20688;-74
2022/05/27 01:28:27;;;;;;;16.73;3.30;;;;;;;;;;5124656;27;20188;-74
2022/05/27 01:31:05;;;;;;;17.10;3.10;;;;;;;;;;5108688;27;20550;-74
2022/05/27 01:33:44;;;;;;;13.57;3.25;;;;;;;;;;5107481;28;20657;-73
2022/05/27 01:36:29;;;;;;;14.07;3.42;;;;;;;;;;5108278;28;20193;-75
2022/05/27 01:39:01;;;;;;;12.30;2.90;;;;;;;;;;5106442;27;20189;-74
2022/05/27 01:41:43;;;;;;;11.50;2.90;;;;;;;;;;5107259;27;20249;-74
2022/05/27 01:44:21;;;;;;;13.50;3.72;;;;;;;;;;5115316;27;20188;-75
2022/05/27 01:46:49;;;;;;;10.75;3.15;;;;;;;;;;5113062;27;20208;-76
2022/05/27 01:49:36;;;;;;;14.30;2.92;;;;;;;;;;5109495;27;20236;-74
2022/05/27 01:52:08;;;;;;;16.45;3.40;;;;;;;;;;5110202;27;20214;-75
2022/05/27 01:54:43;;;;;;;15.13;3.75;;;;;;;;;;5109175;27;20717;-75
2022/05/27 01:57:12;;;;;;;13.27;3.35;;;;;;;;;;5107256;28;20200;-75
2022/05/27 01:59:49;;;;;;;14.02;3.40;;;;;;;;;;5108391;28;20685;-75
2022/05/27 02:02:21;;;;;;;10.20;3.67;;;;;;;;;;5115744;27;20303;-74
2022/05/27 02:05:01;;;;;;;18.10;3.33;;;;;;;;;;5109329;27;21840;-76
2022/05/27 02:07:33;;;;;;;14.82;3.58;;;;;;;;;;5107613;28;20234;-74
2022/05/27 02:10:01;;;;;;;15.68;3.50;;;;;;;;;;5139070;27;20194;-75
2022/05/27 02:12:35;;;;;;;14.20;3.22;;;;;;;;;;5108254;28;20245;-75
2022/05/27 02:15:25;;;;;;;20.63;4.07;;;;;;;;;;5106718;28;20666;-75
2022/05/27 02:17:55;;;;;;;11.30;3.25;;;;;;;;;;5100616;28;20200;-74
2022/05/27 02:20:25;;;;;;;18.30;3.92;;;;;;;;;;5120739;27;20275;-74
2022/05/27 02:22:55;;;;;;;11.55;3.42;;;;;;;;;;5122022;27;20664;-75
2022/05/27 02:25:31;;;;;;;13.93;3.30;;;;;;;;;;5109141;28;20651;-75
2022/05/27 02:28:15;;;;;;;16.00;3.47;;;;;;;;;;5106961;28;20242;-74
2022/05/27 02:30:49;;;;;;;15.90;3.33;;;;;;;;;;5105605;28;20187;-75
2022/05/27 02:36:15;;;;;;;10.43;3.75;;;;;;;;;;5107367;28;20616;-75
2022/05/27 02:38:41;;;;;;;10.10;3.55;;;;;;;;;;5106969;28;20185;-75
2022/05/27 02:41:22;;;;;;;14.02;4.30;;;;;;;;;;5122673;28;20307;-74
2022/05/27 02:44:03;;;;;;;11.98;3.63;;;;;;;;;;5115683;28;20334;-75
2022/05/27 02:46:49;;;;;;;19.67;3.83;;;;;;;;;;5107394;28;20201;-75
2022/05/27 02:49:15;;;;;;;11.18;3.67;;;;;;;;;;5099660;28;20209;-75
2022/05/27 02:52:00;;;;;;;16.25;3.67;;;;;;;;;;5107073;28;20196;-75
2022/05/27 02:54:37;;;;;;;13.02;3.20;;;;;;;;;;5106508;28;20181;-74
2022/05/27 02:57:14;;;;;;;12.27;3.20;;;;;;;;;;5124292;28;20189;-75
2022/05/27 02:59:41;;;;;;;9.63;3.58;;;;;;;;;;5106687;28;20195;-74
2022/05/27 03:02:15;;;;;;;13.23;3.47;;;;;;;;;;5107498;28;20238;-74
2022/05/27 03:04:43;;;;;;;13.07;3.47;;;;;;;;;;5105629;28;20195;-73
2022/05/27 03:07:15;;;;;;;16.42;3.40;;;;;;;;;;5106500;28;20709;-74
2022/05/27 03:09:54;;;;;;;10.70;3.50;;;;;;;;;;5102682;28;20548;-74
2022/05/27 03:12:38;;;;;;;15.77;4.35;;;;;;;;;;5107570;28;20281;-75
2022/05/27 03:15:07;;;;;;;17.52;3.80;;;;;;;;;;5107066;28;20185;-74
2022/05/27 03:17:56;;;;;;;11.65;3.70;;;;;;;;;;5104487;28;20642;-75
2022/05/27 03:20:31;;;;;;;13.48;3.85;;;;;;;;;;5107028;28;20545;-74
2022/05/27 03:23:18;;;;;;;15.18;3.65;;;;;;;;;;5107535;28;20184;-74
2022/05/27 03:25:52;;;;;;;13.85;3.65;;;;;;;;;;5109958;28;20541;-74
2022/05/27 03:28:24;;;;;;;13.38;3.42;;;;;;;;;;5110655;27;20187;-75
2022/05/27 03:30:55;;;;;;;14.45;3.30;;;;;;;;;;5110163;28;20185;-76
2022/05/27 03:33:28;;;;;;;15.45;3.60;;;;;;;;;;5109255;28;20238;-75
2022/05/27 03:36:12;;;;;;;12.70;3.47;;;;;;;;;;5112194;28;20223;-75
2022/05/27 03:38:45;;;;;;;11.60;3.20;;;;;;;;;;5108921;28;20200;-75
2022/05/27 03:41:17;;;;;;;12.45;3.40;;;;;;;;;;5125313;27;20977;-74
2022/05/27 03:43:44;;;;;;;10.75;3.40;;;;;;;;;;5104636;27;20181;-75
2022/05/27 03:46:10;;;;;;;16.08;3.80;;;;;;;;;;5108810;28;20658;-74
2022/05/27 03:48:37;;;;;;;14.25;3.10;;;;;;;;;;5111279;27;20720;-73
2022/05/27 03:51:06;;;;;;;10.30;3.30;;;;;;;;;;5107790;28;20242;-73
2022/05/27 03:56:17;;;;;;;12.80;3.00;;;;;;;;;;5115068;27;20207;-74
2022/05/27 03:58:43;;;;;;;17.83;3.40;;;;;;;;;;5108588;28;20191;-76
2022/05/27 04:01:09;;;;;;;9.90;2.95;;;;;;;;;;5109035;27;20185;-74
2022/05/27 04:03:35;;;;;;;8.77;3.00;;;;;;;;;;5107539;27;20193;-75
2022/05/27 04:06:01;;;;;;;16.77;3.38;;;;;;;;;;5108241;27;20707;-74
2022/05/27 04:08:27;;;;;;;11.15;2.92;;;;;;;;;;5107875;28;20595;-74
2022/05/27 04:10:53;;;;;;;14.82;3.05;;;;;;;;;;5110215;28;20205;-74
2022/05/27 04:13:19;;;;;;;13.50;3.35;;;;;;;;;;5108083;28;20622;-74
2022/05/27 04:15:45;;;;;;;13.85;3.15;;;;;;;;;;5106059;27;20192;-75
2022/05/27 04:18:11;;;;;;;11.70;2.85;;;;;;;;;;5109673;27;20216;-75
2022/05/27 04:20:37;;;;;;;14.38;2.72;;;;;;;;;;5107332;27;20190;-74
2022/05/27 04:23:03;;;;;;;15.18;2.63;;;;;;;;;;5104391;28;20561;-74
2022/05/27 04:25:29;;;;;;;12.10;2.95;;;;;;;;;;5108248;27;20204;-75
2022/05/27 04:27:55;;;;;;;13.20;3.40;;;;;;;;;;5107364;27;20185;-74
2022/05/27 04:30:23;;;;;;;13.00;2.90;;;;;;;;;;5106846;27;20197;-75
2022/05/27 04:32:49;;;;;;;15.55;2.90;;;;;;;;;;5110975;27;20655;-76
2022/05/27 04:35:15;;;;;;;9.23;2.55;;;;;;;;;;5111537;27;20188;-73
2022/05/27 04:37:42;;;;;;;10.95;3.00;;;;;;;;;;5104651;28;20185;-74
2022/05/27 04:40:08;;;;;;;10.98;2.95;;;;;;;;;;5109026;28;20173;-74
2022/05/27 04:42:35;;;;;;;20.33;3.55;;;;;;;;;;5124000;27;20224;-75
2022/05/27 04:45:01;;;;;;;9.27;2.47;;;;;;;;;;5109031;28;20668;-74
2022/05/27 04:47:27;;;;;;;11.30;2.60;;;;;;;;;;5107506;27;20209;-72
2022/05/27 04:49:56;;;;;;;16.38;2.63;;;;;;;;;;5109777;28;20229;-73
2022/05/27 04:52:28;;;;;;;12.02;3.15;;;;;;;;;;5107280;28;20279;-73
2022/05/27 04:54:54;;;;;;;22.08;3.30;;;;;;;;;;5110188;28;20178;-74
2022/05/27 04:57:23;;;;;;;12.57;3.10;;;;;;;;;;5106371;28;20243;-74
2022/05/27 04:59:49;;;;;;;13.90;2.78;;;;;;;;;;5109301;28;20189;-72
2022/05/27 05:02:17;;;;;;;15.95;2.90;;;;;;;;;;5115538;27;20181;-75
2022/05/27 05:04:43;;;;;;;15.57;3.75;;;;;;;;;;5103322;27;20594;-73
2022/05/27 05:07:10;;;;;;;14.95;3.17;;;;;;;;;;5106374;27;20228;-73
2022/05/27 05:09:40;;;;;;;18.95;3.22;;;;;;;;;;5126530;27;20229;-75
2022/05/27 05:12:07;;;;;;;12.73;2.67;;;;;;;;;;5105849;28;20189;-73
2022/05/27 05:14:33;;;;;;;10.07;2.47;;;;;;;;;;5121791;27;20551;-75
2022/05/27 05:16:59;;;;;;;22.00;2.92;;;;;;;;;;5108480;27;20188;-74
2022/05/27 05:19:25;;;;;;;17.80;3.45;;;;;;;;;;5115192;27;21233;-74
2022/05/27 05:21:51;;;;;;;14.25;2.55;;;;;;;;;;5111759;27;20246;-75
2022/05/27 05:24:17;;;;;;;19.45;2.80;;;;;;;;;;5107835;28;20619;-74
2022/05/27 05:26:43;;;;;;;12.05;3.03;;;;;;;;;;5105576;28;20645;-73
2022/05/27 05:29:09;;;;;;;10.40;2.35;;;;;;;;;;5107115;28;20205;-75
2022/05/27 05:31:35;;;;;;;19.15;4.43;;;;;;;;;;5108423;28;20916;-74
2022/05/27 05:34:02;;;;;;;19.33;3.95;;;;;;;;;;5105648;28;20645;-72
2022/05/27 05:36:31;;;;;;;16.30;3.45;;;;;;;;;;5107518;28;20326;-75
2022/05/27 05:38:58;;;;;;;15.23;3.38;;;;;;;;;;5112590;27;20319;-75
2022/05/27 05:41:26;;;;;;;17.52;3.65;;;;;;;;;;5103955;28;20775;-74
2022/05/27 05:43:53;;;;;;;20.98;3.08;;;;;;;;;;5105786;28;20189;-75
2022/05/27 05:46:19;;;;;;;24.00;3.83;;;;;;;;;;5114876;27;20247;-73
2022/05/27 05:48:45;;;;;;;14.43;3.47;;;;;;;;;;5106719;27;20539;-73
2022/05/27 05:51:11;;;;;;;17.65;3.35;;;;;;;;;;5107118;27;20360;-73
2022/05/27 05:53:37;;;;;;;17.02;3.08;;;;;;;;;;5103236;27;20304;-74
2022/05/27 05:56:03;;;;;;;19.27;3.28;;;;;;;;;;5107852;27;20644;-76
2022/05/27 05:58:29;;;;;;;19.20;3.60;;;;;;;;;;5106660;27;20200;-74
2022/05/27 06:00:55;;;;;;;20.55;3.30;;;;;;;;;;5119507;27;20213;-74
2022/05/27 06:03:21;;;;;;;21.00;3.40;;;;;;;;;;5106014;27;20262;-73
2022/05/27 06:05:48;;;;;;;24.05;3.42;;;;;;;;;;5101386;28;20277;-74
2022/05/27 06:08:18;;;;;;;21.55;3.80;;;;;;;;;;5103513;28;20641;-75
2022/05/27 06:10:45;;;;;;;15.82;3.20;;;;;;;;;;5103854;28;20177;-72
2022/05/27 06:13:11;;;;;;;19.23;3.45;;;;;;;;;;5103735;27;20177;-73
2022/05/27 06:15:37;;;;;;;22.58;3.70;;;;;;;;;;5103555;28;20317;-72
2022/05/27 06:18:07;;;;;;;16.05;4.47;;;;;;;;;;5104607;27;20185;-71
2022/05/27 06:20:34;;;;;;;22.38;3.70;;;;;;;;;;5104467;28;20201;-73
2022/05/27 06:23:02;;;;;;;16.75;3.60;;;;;;;;;;5106863;28;20196;-74
2022/05/27 06:25:29;;;;;;;19.73;3.65;;;;;;;;;;5104905;28;20201;-74
2022/05/27 06:36:09;;;;;;;27.35;4.03;;;;;;;;;;5103447;28;20254;-76
2022/05/27 06:38:37;;;;;;;20.08;3.30;;;;;;;;;;5106430;28;20228;-75
2022/05/27 06:41:04;;;;;;;21.02;3.55;;;;;;;;;;5105092;28;20224;-74
2022/05/27 06:43:31;;;;;;;19.45;3.70;;;;;;;;;;5106851;28;20177;-74
2022/05/27 06:45:58;;;;;;;22.38;3.42;;;;;;;;;;5102392;28;20564;-74
2022/05/27 06:48:24;;;;;;;23.63;4.10;;;;;;;;;;5112802;28;20181;-73
2022/05/27 06:50:50;;;;;;;21.38;6.45;;;;;;;;;;5105108;28;20184;-73
2022/05/27 06:53:16;;;;;;;25.27;3.90;;;;;;;;;;5105668;28;20189;-74
2022/05/27 06:55:42;;;;;;;17.50;3.25;;;;;;;;;;5110052;28;20181;-72
2022/05/27 06:58:08;;;;;;;19.23;3.40;;;;;;;;;;5109472;27;20701;-71
2022/05/27 07:00:34;;;;;;;18.77;3.40;;;;;;;;;;5111366;27;20239;-73
2022/05/27 07:03:02;;;;;;;17.80;3.42;;;;;;;;;;5104246;27;20317;-77
2022/05/27 07:05:28;;;;;;;20.70;3.70;;;;;;;;;;5110939;27;20189;-77
2022/05/27 07:07:54;;;;;;;23.60;3.78;;;;;;;;;;5109112;27;20188;-73
2022/05/27 07:10:20;;;;;;;18.95;3.42;;;;;;;;;;5108315;28;20185;-74
2022/05/27 07:12:46;;;;;;;21.38;3.60;;;;;;;;;;5124603;27;20221;-73
2022/05/27 07:15:12;;;;;;;23.13;3.85;;;;;;;;;;5110326;28;20185;-73
2022/05/27 07:17:38;;;;;;;21.23;3.80;;;;;;;;;;5134313;27;20197;-74
2022/05/27 07:20:05;;;;;;;20.85;3.85;;;;;;;;;;5108243;27;20182;-74
2022/05/27 07:22:31;;;;;;;17.63;3.30;;;;;;;;;;5128822;27;20197;-74
2022/05/27 07:24:57;;;;;;;22.65;3.90;;;;;;;;;;5107861;27;20725;-74
2022/05/27 07:27:23;;;;;;;22.35;4.10;;;;;;;;;;5109939;28;20217;-74
2022/05/27 07:29:49;;;;;;;28.05;4.75;;;;;;;;;;5114703;27;20185;-74
2022/05/27 07:32:15;;;;;;;24.13;4.60;;;;;;;;;;5110391;27;20224;-74
2022/05/27 07:34:41;;;;;;;23.00;4.03;;;;;;;;;;5108326;27;20186;-74
2022/05/27 07:37:07;;;;;;;22.23;3.67;;;;;;;;;;5109432;27;20185;-75
2022/05/27 07:39:33;;;;;;;20.83;3.78;;;;;;;;;;5106064;27;20554;-75
2022/05/27 07:41:59;;;;;;;17.27;3.13;;;;;;;;;;5110985;27;20652;-74
2022/05/27 07:44:25;;;;;;;16.65;3.70;;;;;;;;;;5110287;28;20212;-73
2022/05/27 07:46:52;;;;;;;18.10;3.67;;;;;;;;;;5110034;27;20197;-74
2022/05/27 07:49:18;;;;;;;25.58;3.83;;;;;;;;;;5114723;27;20187;-74
2022/05/27 07:51:44;;;;;;;20.40;3.60;;;;;;;;;;5110204;27;20185;-73
2022/05/27 07:54:11;;;;;;;25.63;3.90;;;;;;;;;;5106140;27;20186;-74
2022/05/27 07:56:39;;;;;;;21.05;3.85;;;;;;;;;;5110740;28;20270;-74
2022/05/27 07:59:05;;;;;;;28.02;3.60;;;;;;;;;;5112610;28;20264;-73
2022/05/27 08:01:31;;;;;;;24.58;4.10;;;;;;;;;;5106482;27;20587;-75
2022/05/27 08:03:58;;;;;;;20.90;4.13;;;;;;;;;;5112637;27;20165;-74
2022/05/27 08:06:24;;;;;;;16.02;3.40;;;;;;;;;;5110777;27;20205;-74
2022/05/27 08:08:50;;;;;;;31.35;4.28;;;;;;;;;;5108707;27;20959;-73
2022/05/27 08:11:16;;;;;;;16.40;3.30;;;;;;;;;;5105546;27;20178;-73
2022/05/27 08:13:42;;;;;;;18.77;3.30;;;;;;;;;;5110374;27;20234;-73
2022/05/27 08:16:09;;;;;;;17.52;3.78;;;;;;;;;;5108056;27;20654;-73
2022/05/27 08:18:35;;;;;;;23.98;4.90;;;;;;;;;;5116085;27;20197;-72
2022/05/27 08:21:01;;;;;;;21.67;3.42;;;;;;;;;;5110176;27;20189;-74
2022/05/27 08:23:28;;;;;;;16.65;3.28;;;;;;;;;;5089167;27;20210;-74
2022/05/27 08:25:56;;;;;;;20.55;3.30;;;;;;;;;;5110920;27;20575;-74
2022/05/27 08:28:24;;;;;;;16.70;3.25;;;;;;;;;;5110195;27;20545;-73
2022/05/27 08:30:51;;;;;;;14.55;2.65;;;;;;;;;;5121746;27;20186;-74
2022/05/27 08:33:17;;;;;;;19.60;3.10;;;;;;;;;;5108487;27;20534;-74
2022/05/27 08:38:31;;;;;;;14.90;3.45;;;;;;;;;;5108520;27;20236;-74
2022/05/27 08:41:03;;;;;;;25.75;3.90;;;;;;;;;;5117975;27;20224;-74
2022/05/27 08:43:42;;;;;;;19.08;5.13;;;;;;;;;;5119667;27;20215;-75
2022/05/27 08:46:34;;;;;;;22.80;4.32;;;;;;;;;;5101303;27;20204;-74
2022/05/27 08:49:02;;;;;;;21.92;3.92;;;;;;;;;;5107508;28;20185;-74
2022/05/27 08:51:32;;;;;;;21.73;4.30;;;;;;;;;;5109327;28;20186;-75
2022/05/27 08:54:24;;;;;;;18.02;3.30;;;;;;;;;;5108351;27;20641;-74
2022/05/27 08:59:38;;;;;;;26.25;4.57;;;;;;;;;;5109371;28;20200;-74
2022/05/27 09:02:04;;;;;;;19.25;3.60;;;;;;;;;;5107950;27;20201;-73
2022/05/27 09:04:33;;;;;;;26.27;4.10;;;;;;;;;;5102317;27;20279;-73
2022/05/27 09:07:02;;;;;;;23.77;3.72;;;;;;;;;;5103137;27;20213;-74
2022/05/27 09:09:29;;;;;;;25.88;4.05;;;;;;;;;;5114054;27;20183;-74
2022/05/27 09:12:08;;;;;;;21.35;3.42;;;;;;;;;;5109569;27;20185;-73
2022/05/27 09:14:36;;;;;;;20.17;3.70;;;;;;;;;;5108806;28;20594;-76
2022/05/27 09:17:06;;;;;;;26.30;4.25;;;;;;;;;;5108714;27;20280;-73
2022/05/27 09:19:59;;;;;;;25.48;4.30;;;;;;;;;;5106187;28;20189;-73
2022/05/27 09:22:49;;;;;;;27.98;4.80;;;;;;;;;;5110538;27;20181;-74
2022/05/27 09:25:20;;;;;;;18.23;3.95;;;;;;;;;;5104383;28;20649;-73
2022/05/27 09:27:46;;;;;;;27.90;4.45;;;;;;;;;;5126694;27;20201;-73
2022/05/27 09:30:13;;;;;;;22.25;3.90;;;;;;;;;;5106579;28;20656;-73
2022/05/27 09:32:46;;;;;;;21.30;4.30;;;;;;;;;;5106390;28;20686;-74
2022/05/27 09:35:15;;;;;;;31.90;4.60;;;;;;;;;;5109349;28;20201;-74
2022/05/27 09:37:44;;;;;;;23.00;4.10;;;;;;;;;;5112543;27;20192;-73
2022/05/27 09:40:15;;;;;;;25.65;4.45;;;;;;;;;;5133867;27;20200;-73
2022/05/27 09:43:11;;;;;;;20.30;3.80;;;;;;;;;;5119777;27;20267;-73
2022/05/27 09:45:37;;;;;;;24.67;5.00;;;;;;;;;;5057554;28;20191;-74
2022/05/27 09:48:06;;;;;;;26.08;4.15;;;;;;;;;;5106792;28;20264;-74
2022/05/27 09:50:39;;;;;;;19.10;3.72;;;;;;;;;;5109512;28;20274;-74
2022/05/27 09:53:06;;;;;;;26.38;4.25;;;;;;;;;;5101475;28;20178;-75
2022/05/27 09:55:35;;;;;;;28.08;4.18;;;;;;;;;;5125866;27;20653;-73
2022/05/27 09:58:03;;;;;;;28.85;4.97;;;;;;;;;;5116188;27;20185;-74
2022/05/27 10:00:49;;;;;;;22.42;4.03;;;;;;;;;;5108780;27;20616;-75
2022/05/27 10:03:26;;;;;;;32.03;5.45;;;;;;;;;;5107252;27;20276;-75
2022/05/27 10:05:57;;;;;;;17.35;3.65;;;;;;;;;;5107100;28;20216;-74
2022/05/27 10:08:28;;;;;;;20.88;3.70;;;;;;;;;;5103895;27;20189;-74
2022/05/27 10:11:33;;;;;;;17.23;3.42;;;;;;;;;;5107889;28;20227;-74
2022/05/27 10:14:17;;;;;;;19.40;3.63;;;;;;;;;;5075186;28;20597;-74
2022/05/27 10:16:44;;;;;;;18.52;3.70;;;;;;;;;;5064764;28;20187;-74
2022/05/27 10:19:14;;;;;;;19.40;3.53;;;;;;;;;;5084806;27;20199;-74
2022/05/27 10:22:01;;;;;;;23.20;3.15;;;;;;;;;;5108328;27;20224;-74
2022/05/27 10:24:29;;;;;;;16.05;3.33;;;;;;;;;;5109287;28;20196;-73
2022/05/27 10:27:04;;;;;;;21.20;3.22;;;;;;;;;;5113890;27;20310;-73
2022/05/27 10:29:31;;;;;;;17.58;3.60;;;;;;;;;;5092273;27;20185;-73
2022/05/27 10:31:59;;;;;;;17.90;3.35;;;;;;;;;;5103321;28;20181;-74
2022/05/27 10:34:42;;;;;;;15.40;3.05;;;;;;;;;;5116234;27;20181;-73
2022/05/27 10:37:14;;;;;;;16.77;2.72;;;;;;;;;;5106105;28;20184;-73
2022/05/27 10:39:46;;;;;;;13.73;3.03;;;;;;;;;;5103888;28;20193;-73
2022/05/27 10:42:21;;;;;;;12.07;3.38;;;;;;;;;;5104660;28;20213;-73
2022/05/27 10:44:53;;;;;;;17.63;3.13;;;;;;;;;;5106072;28;20225;-74
2022/05/27 10:47:34;;;;;;;16.38;2.90;;;;;;;;;;5106184;28;20433;-74
2022/05/27 10:50:01;;;;;;;15.27;3.50;;;;;;;;;;5104607;28;20181;-73
2022/05/27 10:52:33;;;;;;;19.50;3.50;;;;;;;;;;5124919;27;20181;-75
2022/05/27 10:55:15;;;;;;;18.25;2.80;;;;;;;;;;5119292;28;20625;-73
2022/05/27 11:04:00;;;;;;;18.65;3.40;;;;;;;;;;5111731;28;20185;-72
2022/05/27 11:06:45;;;;;;;15.67;2.90;;;;;;;;;;5107496;28;20958;-76
2022/05/27 11:09:36;;;;;;;19.63;3.90;;;;;;;;;;5100699;28;20440;-73
2022/05/27 11:12:02;;;;;;;21.70;3.70;;;;;;;;;;5088937;28;20431;-74
2022/05/27 11:17:46;;;;;;;19.52;3.08;;;;;;;;;;5115012;28;20208;-73
2022/05/27 11:20:12;;;;;;;18.67;3.35;;;;;;;;;;5104363;28;20444;-73
2022/05/27 11:22:44;;;;;;;15.40;3.10;;;;;;;;;;5113385;28;20182;-74
2022/05/27 11:25:36;;;;;;;19.33;3.60;;;;;;;;;;5106657;28;20177;-73
2022/05/27 11:28:26;;;;;;;16.30;2.92;;;;;;;;;;5087970;28;20197;-73
2022/05/27 11:31:11;;;;;;;17.48;2.72;;;;;;;;;;5084406;28;20205;-73
2022/05/27 11:33:57;;;;;;;16.00;3.33;;;;;;;;;;5113050;28;20224;-74
2022/05/27 11:36:30;;;;;;;20.48;3.85;;;;;;;;;;5104045;28;20193;-74
2022/05/27 11:38:56;;;;;;;20.20;3.63;;;;;;;;;;5104446;28;20431;-75
2022/05/27 11:41:31;;;;;;;16.10;3.17;;;;;;;;;;5105333;28;20217;-74
2022/05/27 11:43:58;;;;;;;21.10;3.03;;;;;;;;;;5106321;27;20195;-76
2022/05/27 11:46:43;;;;;;;13.45;2.53;;;;;;;;;;5109506;27;20208;-74
2022/05/27 11:49:19;;;;;;;17.60;2.92;;;;;;;;;;5114779;27;20208;-74
2022/05/27 11:51:45;;;;;;;20.17;3.67;;;;;;;;;;5108082;27;20307;-73
2022/05/27 11:54:26;;;;;;;19.10;2.78;;;;;;;;;;5106923;27;20189;-74
2022/05/27 11:57:11;;;;;;;23.55;3.22;;;;;;;;;;5100122;28;20223;-74
2022/05/27 11:59:40;;;;;;;18.98;3.97;;;;;;;;;;5108594;28;20216;-75
2022/05/27 12:02:16;;;;;;;15.25;3.35;;;;;;;;;;5110364;28;20181;-74
2022/05/27 12:04:56;;;;;;;20.35;3.63;;;;;;;;;;5122683;27;20185;-75
2022/05/27 12:07:25;;;;;;;13.20;2.80;;;;;;;;;;5116991;27;20216;-74
2022/05/27 12:10:07;;;;;;;12.65;3.08;;;;;;;;;;5111465;27;20263;-73
2022/05/27 12:12:34;;;;;;;17.98;3.63;;;;;;;;;;5109204;28;20181;-75
2022/05/27 12:15:06;;;;;;;16.13;3.38;;;;;;;;;;5107810;27;20182;-75
2022/05/27 12:17:43;;;;;;;17.52;2.65;;;;;;;;;;5111602;27;20193;-75
2022/05/27 12:20:10;;;;;;;13.30;3.10;;;;;;;;;;5117344;27;20185;-75
2022/05/27 12:22:36;;;;;;;15.18;2.75;;;;;;;;;;5111882;27;20235;-74
2022/05/27 12:25:08;;;;;;;17.73;3.05;;;;;;;;;;5108794;27;20247;-74
2022/05/27 12:27:35;;;;;;;19.13;2.78;;;;;;;;;;5108561;27;20220;-73
2022/05/27 12:30:02;;;;;;;20.17;3.58;;;;;;;;;;5109699;27;20185;-75
2022/05/27 12:32:29;;;;;;;19.73;3.10;;;;;;;;;;5116164;27;20599;-75
2022/05/27 12:35:18;;;;;;;15.80;3.15;;;;;;;;;;5116581;27;20652;-75
2022/05/27 12:37:51;;;;;;;23.25;3.33;;;;;;;;;;5109999;27;20193;-74
2022/05/27 12:40:17;;;;;;;16.33;2.70;;;;;;;;;;5110835;27;20203;-74
2022/05/27 12:42:44;;;;;;;24.00;4.00;;;;;;;;;;5105737;28;20228;-75
2022/05/27 12:45:20;;;;;;;21.27;3.55;;;;;;;;;;5108846;28;20222;-76
2022/05/27 12:47:51;;;;;;;20.02;3.80;;;;;;;;;;5118184;27;20211;-75
2022/05/27 12:50:22;;;;;;;22.35;3.53;;;;;;;;;;5107383;28;20668;-75
2022/05/27 12:52:48;;;;;;;17.08;2.95;;;;;;;;;;5107988;28;20284;-75
2022/05/27 12:55:38;;;;;;;18.90;3.10;;;;;;;;;;5106269;28;20548;-75
2022/05/27 13:00:59;;;;;;;18.33;2.85;;;;;;;;;;5103687;27;20204;-74
2022/05/27 13:03:38;;;;;;;17.60;3.03;;;;;;;;;;5110836;27;20621;-73
2022/05/27 13:06:04;;;;;;;18.35;2.83;;;;;;;;;;5103928;28;20254;-75
2022/05/27 13:08:43;;;;;;;15.18;3.38;;;;;;;;;;5113764;27;20576;-73
2022/05/27 13:11:15;;;;;;;12.30;2.63;;;;;;;;;;5107034;28;20212;-75
2022/05/27 13:13:42;;;;;;;10.48;2.90;;;;;;;;;;5108348;27;20556;-76
2022/05/27 13:16:23;;;;;;;20.30;2.97;;;;;;;;;;5108815;28;20193;-75
2022/05/27 13:18:51;;;;;;;16.67;2.95;;;;;;;;;;5109404;28;20264;-75
2022/05/27 13:21:22;;;;;;;13.13;2.90;;;;;;;;;;5108453;28;20189;-74
2022/05/27 13:23:53;;;;;;;14.27;3.10;;;;;;;;;;5108537;27;20185;-76
2022/05/27 13:26:37;;;;;;;14.55;3.03;;;;;;;;;;5127807;27;20201;-75
2022/05/27 13:29:15;;;;;;;15.13;3.03;;;;;;;;;;5109223;27;20208;-73
2022/05/27 13:31:43;;;;;;;17.67;2.72;;;;;;;;;;5107508;28;20667;-74
2022/05/27 13:34:14;;;;;;;15.30;3.35;;;;;;;;;;5101586;27;20188;-76
2022/05/27 13:36:51;;;;;;;19.27;3.28;;;;;;;;;;5089703;28;20261;-74
2022/05/27 13:39:20;;;;;;;13.93;2.65;;;;;;;;;;5120697;27;20195;-75
2022/05/27 13:41:48;;;;;;;15.00;3.05;;;;;;;;;;5105033;27;20229;-75
2022/05/27 13:44:16;;;;;;;12.57;2.60;;;;;;;;;;5108580;27;20754;-76
2022/05/27 13:46:44;;;;;;;13.48;2.97;;;;;;;;;;5122986;27;20616;-76
2022/05/27 13:49:14;;;;;;;15.23;3.20;;;;;;;;;;5116805;27;20189;-76
2022/05/27 13:51:41;;;;;;;15.82;2.70;;;;;;;;;;5106474;28;20280;-76
2022/05/27 13:54:16;;;;;;;14.82;2.75;;;;;;;;;;5106478;28;20246;-76
2022/05/27 13:56:45;;;;;;;21.73;3.50;;;;;;;;;;5111821;27;20188;-73
2022/05/27 13:59:14;;;;;;;12.25;2.80;;;;;;;;;;5090329;28;20272;-77
2022/05/27 14:02:00;;;;;;;13.23;2.50;;;;;;;;;;5104775;27;20670;-74
2022/05/27 14:04:31;;;;;;;11.35;2.63;;;;;;;;;;5110605;27;20235;-74
2022/05/27 14:06:57;;;;;;;13.23;2.65;;;;;;;;;;5105830;28;20685;-74
2022/05/27 14:09:23;;;;;;;16.98;3.05;;;;;;;;;;5110696;27;20251;-74
2022/05/27 14:11:51;;;;;;;15.73;2.97;;;;;;;;;;5106591;28;20189;-74
2022/05/27 14:14:22;;;;;;;11.73;2.33;;;;;;;;;;5109540;27;20209;-74
2022/05/27 14:16:48;;;;;;;12.93;2.90;;;;;;;;;;5107272;27;20646;-74
2022/05/27 14:19:23;;;;;;;17.60;3.00;;;;;;;;;;5108420;27;20222;-73
2022/05/27 14:24:42;;;;;;;11.65;3.00;;;;;;;;;;5108556;27;20571;-75
2022/05/27 14:27:13;;;;;;;10.95;2.25;;;;;;;;;;5116186;27;20295;-73
2022/05/27 14:29:40;;;;;;;21.70;3.05;;;;;;;;;;5117977;27;20192;-76
2022/05/27 14:32:08;;;;;;;11.15;2.28;;;;;;;;;;5103296;28;20212;-73
2022/05/27 14:34:36;;;;;;;12.20;2.67;;;;;;;;;;5104990;28;20712;-74
2022/05/27 14:37:11;;;;;;;17.67;2.85;;;;;;;;;;5101714;28;20676;-73
2022/05/27 14:39:38;;;;;;;15.07;2.95;;;;;;;;;;5109196;28;20199;-74
2022/05/27 14:42:04;;;;;;;10.88;2.60;;;;;;;;;;5106176;28;20230;-74
2022/05/27 14:44:40;;;;;;;19.52;3.00;;;;;;;;;;5112183;28;20657;-76
2022/05/27 14:47:11;;;;;;;15.88;2.78;;;;;;;;;;5112540;28;20235;-75
2022/05/27 14:49:49;;;;;;;15.20;3.15;;;;;;;;;;5110416;28;20270;-74
2022/05/27 14:52:21;;;;;;;11.18;2.50;;;;;;;;;;5127487;27;20181;-76
2022/05/27 14:54:47;;;;;;;15.00;3.17;;;;;;;;;;5105498;28;20181;-75
2022/05/27 14:57:17;;;;;;;11.02;2.40;;;;;;;;;;5111907;28;20220;-75
2022/05/27 14:59:47;;;;;;;13.75;2.60;;;;;;;;;;5115310;27;20193;-76
2022/05/27 15:02:20;;;;;;;12.43;2.60;;;;;;;;;;5105255;28;20735;-76
2022/05/27 15:05:02;;;;;;;14.05;2.80;;;;;;;;;;5105707;28;20194;-73
2022/05/27 15:07:48;;;;;;;12.88;2.53;;;;;;;;;;5097373;28;20708;-74
2022/05/27 15:10:34;;;;;;;12.95;2.50;;;;;;;;;;5107239;28;20550;-74
2022/05/27 15:13:19;;;;;;;11.10;2.67;;;;;;;;;;5106286;28;20189;-75
2022/05/27 15:15:45;;;;;;;12.15;2.47;;;;;;;;;;5110538;28;20735;-75
2022/05/27 15:18:13;;;;;;;12.77;2.72;;;;;;;;;;5114931;27;20184;-75
2022/05/27 15:20:43;;;;;;;17.05;2.88;;;;;;;;;;5114408;27;20196;-75
2022/05/27 15:23:10;;;;;;;9.82;2.45;;;;;;;;;;5121954;27;20530;-76
2022/05/27 15:25:39;;;;;;;15.77;2.67;;;;;;;;;;5119176;27;20568;-76
2022/05/27 15:33:45;;;;;;;13.98;3.10;;;;;;;;;;5120356;27;20208;-76